sensor_id;sensor_type;location;lat;lon;timestamp;P1;durP1;ratioP1;P2;durP2;ratioP2
21661;SDS011;10992;48.170;8.596;2022-10-26T00:01:03;7.82;;;5.13;;
21661;SDS011;10992;48.170;8.596;2022-10-26T00:03:32;5.88;;;4.53;;
21661;SDS011;10992;48.170;8.596;2022-10-26T00:06:04;8.77;;;4.55;;
21661;SDS011;10992;48.170;8.596;2022-10-26T00:08:31;8.48;;;4.43;;
21661;SDS011;10992;48.170;8.596;2022-10-26T00:10:59;11.15;;;4.15;;
21661;SDS011;10992;48.170;8.596;2022-10-26T00:13:26;4.82;;;3.40;;
21661;SDS011;10992;48.170;8.596;2022-10-26T00:15:53;8.10;;;3.72;;
21661;SDS011;10992;48.170;8.596;2022-10-26T00:18:21;4.05;;;3.28;;
21661;SDS011;10992;48.170;8.596;2022-10-26T00:20:48;5.90;;;3.50;;
21661;SDS011;10992;48.170;8.596;2022-10-26T00:23:15;5.13;;;3.15;;
21661;SDS011;10992;48.170;8.596;2022-10-26T00:25:43;6.80;;;3.20;;
21661;SDS011;10992;48.170;8.596;2022-10-26T00:28:10;8.52;;;2.97;;
21661;SDS011;10992;48.170;8.596;2022-10-26T00:30:37;5.45;;;3.20;;
21661;SDS011;10992;48.170;8.596;2022-10-26T00:33:05;4.80;;;3.70;;
21661;SDS011;10992;48.170;8.596;2022-10-26T00:35:32;5.68;;;3.67;;
21661;SDS011;10992;48.170;8.596;2022-10-26T00:38:11;6.20;;;3.92;;
21661;SDS011;10992;48.170;8.596;2022-10-26T00:40:38;6.25;;;4.13;;
21661;SDS011;10992;48.170;8.596;2022-10-26T00:43:12;8.65;;;4.53;;
21661;SDS011;10992;48.170;8.596;2022-10-26T00:45:41;9.25;;;5.00;;
21661;SDS011;10992;48.170;8.596;2022-10-26T00:48:15;9.07;;;5.60;;
21661;SDS011;10992;48.170;8.596;2022-10-26T00:50:52;8.23;;;6.13;;
21661;SDS011;10992;48.170;8.596;2022-10-26T00:53:21;8.70;;;5.00;;
21661;SDS011;10992;48.170;8.596;2022-10-26T00:55:48;7.50;;;5.15;;
21661;SDS011;10992;48.170;8.596;2022-10-26T00:58:17;10.45;;;5.25;;
21661;SDS011;10992;48.170;8.596;2022-10-26T01:00:46;7.00;;;5.18;;
21661;SDS011;10992;48.170;8.596;2022-10-26T01:03:13;9.13;;;5.20;;
21661;SDS011;10992;48.170;8.596;2022-10-26T01:05:42;8.40;;;5.22;;
21661;SDS011;10992;48.170;8.596;2022-10-26T01:08:11;9.95;;;4.65;;
21661;SDS011;10992;48.170;8.596;2022-10-26T01:10:39;14.02;;;4.85;;
21661;SDS011;10992;48.170;8.596;2022-10-26T01:13:08;6.65;;;3.97;;
21661;SDS011;10992;48.170;8.596;2022-10-26T01:18:11;8.25;;;4.03;;
21661;SDS011;10992;48.170;8.596;2022-10-26T01:20:56;5.30;;;3.40;;
21661;SDS011;10992;48.170;8.596;2022-10-26T01:26:40;5.57;;;3.40;;
21661;SDS011;10992;48.170;8.596;2022-10-26T01:32:22;7.90;;;3.85;;
21661;SDS011;10992;48.170;8.596;2022-10-26T01:34:58;4.60;;;3.55;;
21661;SDS011;10992;48.170;8.596;2022-10-26T01:37:35;8.13;;;3.38;;
21661;SDS011;10992;48.170;8.596;2022-10-26T01:42:41;5.80;;;3.72;;
21661;SDS011;10992;48.170;8.596;2022-10-26T01:45:12;7.20;;;3.58;;
21661;SDS011;10992;48.170;8.596;2022-10-26T01:47:40;7.43;;;3.38;;
21661;SDS011;10992;48.170;8.596;2022-10-26T01:50:08;9.93;;;4.22;;
21661;SDS011;10992;48.170;8.596;2022-10-26T01:52:36;5.88;;;3.85;;
21661;SDS011;10992;48.170;8.596;2022-10-26T01:55:04;7.13;;;4.18;;
21661;SDS011;10992;48.170;8.596;2022-10-26T01:57:52;6.53;;;3.97;;
21661;SDS011;10992;48.170;8.596;2022-10-26T02:00:22;8.75;;;3.25;;
21661;SDS011;10992;48.170;8.596;2022-10-26T02:05:50;7.65;;;3.10;;
21661;SDS011;10992;48.170;8.596;2022-10-26T02:08:57;7.50;;;3.03;;
21661;SDS011;10992;48.170;8.596;2022-10-26T02:11:37;4.78;;;3.38;;
21661;SDS011;10992;48.170;8.596;2022-10-26T02:14:31;5.40;;;2.47;;
21661;SDS011;10992;48.170;8.596;2022-10-26T02:16:54;7.28;;;2.80;;
21661;SDS011;10992;48.170;8.596;2022-10-26T02:21:59;5.65;;;2.70;;
21661;SDS011;10992;48.170;8.596;2022-10-26T02:24:35;3.78;;;2.55;;
21661;SDS011;10992;48.170;8.596;2022-10-26T02:27:05;4.85;;;2.60;;
21661;SDS011;10992;48.170;8.596;2022-10-26T02:29:35;4.13;;;2.65;;
21661;SDS011;10992;48.170;8.596;2022-10-26T02:32:04;6.47;;;2.90;;
21661;SDS011;10992;48.170;8.596;2022-10-26T02:34:33;5.72;;;2.88;;
21661;SDS011;10992;48.170;8.596;2022-10-26T02:37:03;4.22;;;3.05;;
21661;SDS011;10992;48.170;8.596;2022-10-26T02:39:31;4.40;;;2.80;;
21661;SDS011;10992;48.170;8.596;2022-10-26T02:42:01;6.18;;;3.28;;
21661;SDS011;10992;48.170;8.596;2022-10-26T02:44:32;4.20;;;2.45;;
21661;SDS011;10992;48.170;8.596;2022-10-26T02:47:06;5.68;;;2.42;;
21661;SDS011;10992;48.170;8.596;2022-10-26T02:49:34;5.28;;;2.35;;
21661;SDS011;10992;48.170;8.596;2022-10-26T02:57:21;4.43;;;2.40;;
21661;SDS011;10992;48.170;8.596;2022-10-26T02:59:53;4.53;;;2.33;;
21661;SDS011;10992;48.170;8.596;2022-10-26T03:02:22;4.32;;;2.60;;
21661;SDS011;10992;48.170;8.596;2022-10-26T03:04:49;4.13;;;2.63;;
21661;SDS011;10992;48.170;8.596;2022-10-26T03:07:22;5.05;;;2.63;;
21661;SDS011;10992;48.170;8.596;2022-10-26T03:09:50;5.25;;;2.22;;
21661;SDS011;10992;48.170;8.596;2022-10-26T03:12:17;5.47;;;2.40;;
21661;SDS011;10992;48.170;8.596;2022-10-26T03:14:43;5.38;;;3.22;;
21661;SDS011;10992;48.170;8.596;2022-10-26T03:17:10;8.45;;;3.10;;
21661;SDS011;10992;48.170;8.596;2022-10-26T03:19:37;4.25;;;2.30;;
21661;SDS011;10992;48.170;8.596;2022-10-26T03:22:04;4.47;;;2.45;;
21661;SDS011;10992;48.170;8.596;2022-10-26T03:24:31;3.85;;;2.05;;
21661;SDS011;10992;48.170;8.596;2022-10-26T03:26:58;5.38;;;2.88;;
21661;SDS011;10992;48.170;8.596;2022-10-26T03:29:27;4.32;;;2.90;;
21661;SDS011;10992;48.170;8.596;2022-10-26T03:31:54;7.40;;;2.85;;
21661;SDS011;10992;48.170;8.596;2022-10-26T03:34:21;6.05;;;3.30;;
21661;SDS011;10992;48.170;8.596;2022-10-26T03:36:48;4.32;;;2.90;;
21661;SDS011;10992;48.170;8.596;2022-10-26T03:39:15;5.38;;;2.72;;
21661;SDS011;10992;48.170;8.596;2022-10-26T03:41:42;4.15;;;2.72;;
21661;SDS011;10992;48.170;8.596;2022-10-26T03:44:09;7.75;;;2.97;;
21661;SDS011;10992;48.170;8.596;2022-10-26T03:46:36;7.38;;;2.95;;
21661;SDS011;10992;48.170;8.596;2022-10-26T03:49:03;8.50;;;2.92;;
21661;SDS011;10992;48.170;8.596;2022-10-26T03:51:30;5.53;;;2.95;;
21661;SDS011;10992;48.170;8.596;2022-10-26T03:53:56;8.23;;;3.30;;
21661;SDS011;10992;48.170;8.596;2022-10-26T03:56:23;4.43;;;2.67;;
21661;SDS011;10992;48.170;8.596;2022-10-26T03:58:51;8.85;;;3.00;;
21661;SDS011;10992;48.170;8.596;2022-10-26T04:01:18;4.70;;;3.05;;
21661;SDS011;10992;48.170;8.596;2022-10-26T04:03:44;5.55;;;3.00;;
21661;SDS011;10992;48.170;8.596;2022-10-26T04:06:11;6.95;;;3.10;;
21661;SDS011;10992;48.170;8.596;2022-10-26T04:08:38;5.43;;;3.50;;
21661;SDS011;10992;48.170;8.596;2022-10-26T04:11:05;5.47;;;3.47;;
21661;SDS011;10992;48.170;8.596;2022-10-26T04:13:32;4.55;;;2.80;;
21661;SDS011;10992;48.170;8.596;2022-10-26T04:15:59;5.20;;;2.95;;
21661;SDS011;10992;48.170;8.596;2022-10-26T04:18:26;4.63;;;2.90;;
21661;SDS011;10992;48.170;8.596;2022-10-26T04:20:53;4.70;;;2.40;;
21661;SDS011;10992;48.170;8.596;2022-10-26T04:23:20;6.35;;;2.65;;
21661;SDS011;10992;48.170;8.596;2022-10-26T04:25:48;6.50;;;2.80;;
21661;SDS011;10992;48.170;8.596;2022-10-26T04:28:15;6.07;;;2.55;;
21661;SDS011;10992;48.170;8.596;2022-10-26T04:30:41;4.55;;;2.20;;
21661;SDS011;10992;48.170;8.596;2022-10-26T04:33:08;6.63;;;2.60;;
21661;SDS011;10992;48.170;8.596;2022-10-26T04:35:35;9.63;;;2.80;;
21661;SDS011;10992;48.170;8.596;2022-10-26T04:38:03;6.45;;;2.50;;
21661;SDS011;10992;48.170;8.596;2022-10-26T04:40:31;5.20;;;3.22;;
21661;SDS011;10992;48.170;8.596;2022-10-26T04:42:59;4.93;;;2.67;;
21661;SDS011;10992;48.170;8.596;2022-10-26T04:45:26;5.45;;;2.60;;
21661;SDS011;10992;48.170;8.596;2022-10-26T04:48:04;6.85;;;3.28;;
21661;SDS011;10992;48.170;8.596;2022-10-26T04:50:32;5.88;;;2.80;;
21661;SDS011;10992;48.170;8.596;2022-10-26T04:53:02;6.75;;;3.28;;
21661;SDS011;10992;48.170;8.596;2022-10-26T04:55:30;9.10;;;3.22;;
21661;SDS011;10992;48.170;8.596;2022-10-26T04:57:56;5.03;;;2.42;;
21661;SDS011;10992;48.170;8.596;2022-10-26T05:00:27;8.38;;;3.25;;
21661;SDS011;10992;48.170;8.596;2022-10-26T05:03:02;8.25;;;3.53;;
21661;SDS011;10992;48.170;8.596;2022-10-26T05:05:34;8.73;;;3.85;;
21661;SDS011;10992;48.170;8.596;2022-10-26T05:08:02;8.02;;;5.05;;
21661;SDS011;10992;48.170;8.596;2022-10-26T05:10:29;8.82;;;5.72;;
21661;SDS011;10992;48.170;8.596;2022-10-26T05:12:58;9.30;;;6.30;;
21661;SDS011;10992;48.170;8.596;2022-10-26T05:15:26;11.32;;;8.13;;
21661;SDS011;10992;48.170;8.596;2022-10-26T05:17:57;16.13;;;8.57;;
21661;SDS011;10992;48.170;8.596;2022-10-26T05:20:29;12.48;;;9.63;;
21661;SDS011;10992;48.170;8.596;2022-10-26T05:22:58;15.32;;;9.85;;
21661;SDS011;10992;48.170;8.596;2022-10-26T05:25:27;11.20;;;9.25;;
21661;SDS011;10992;48.170;8.596;2022-10-26T05:27:59;16.10;;;10.55;;
21661;SDS011;10992;48.170;8.596;2022-10-26T05:30:27;16.17;;;11.45;;
21661;SDS011;10992;48.170;8.596;2022-10-26T05:32:55;13.93;;;9.75;;
21661;SDS011;10992;48.170;8.596;2022-10-26T05:35:22;14.05;;;10.07;;
21661;SDS011;10992;48.170;8.596;2022-10-26T05:37:51;16.15;;;10.50;;
21661;SDS011;10992;48.170;8.596;2022-10-26T05:40:18;12.23;;;10.35;;
21661;SDS011;10992;48.170;8.596;2022-10-26T05:42:45;14.45;;;10.73;;
21661;SDS011;10992;48.170;8.596;2022-10-26T05:45:13;17.42;;;11.68;;
21661;SDS011;10992;48.170;8.596;2022-10-26T05:47:41;17.08;;;11.40;;
21661;SDS011;10992;48.170;8.596;2022-10-26T05:50:10;20.77;;;11.77;;
21661;SDS011;10992;48.170;8.596;2022-10-26T05:52:41;13.00;;;10.98;;
21661;SDS011;10992;48.170;8.596;2022-10-26T05:55:10;14.07;;;11.10;;
21661;SDS011;10992;48.170;8.596;2022-10-26T05:57:38;15.20;;;11.65;;
21661;SDS011;10992;48.170;8.596;2022-10-26T06:00:07;15.73;;;11.13;;
21661;SDS011;10992;48.170;8.596;2022-10-26T06:05:25;16.42;;;13.20;;
21661;SDS011;10992;48.170;8.596;2022-10-26T06:07:53;19.70;;;14.90;;
21661;SDS011;10992;48.170;8.596;2022-10-26T06:10:21;17.33;;;13.80;;
21661;SDS011;10992;48.170;8.596;2022-10-26T06:12:48;16.50;;;13.85;;
21661;SDS011;10992;48.170;8.596;2022-10-26T06:15:19;19.77;;;14.63;;
21661;SDS011;10992;48.170;8.596;2022-10-26T06:18:01;18.70;;;14.48;;
21661;SDS011;10992;48.170;8.596;2022-10-26T06:23:59;19.90;;;15.50;;
21661;SDS011;10992;48.170;8.596;2022-10-26T06:26:45;20.92;;;17.50;;
21661;SDS011;10992;48.170;8.596;2022-10-26T06:32:09;20.17;;;15.55;;
21661;SDS011;10992;48.170;8.596;2022-10-26T06:34:36;21.77;;;16.73;;
21661;SDS011;10992;48.170;8.596;2022-10-26T06:37:09;17.17;;;14.32;;
21661;SDS011;10992;48.170;8.596;2022-10-26T06:39:38;16.10;;;13.55;;
21661;SDS011;10992;48.170;8.596;2022-10-26T06:42:10;17.85;;;13.23;;
21661;SDS011;10992;48.170;8.596;2022-10-26T06:44:37;14.25;;;12.52;;
21661;SDS011;10992;48.170;8.596;2022-10-26T06:47:05;14.73;;;11.27;;
21661;SDS011;10992;48.170;8.596;2022-10-26T06:49:39;14.05;;;10.02;;
21661;SDS011;10992;48.170;8.596;2022-10-26T06:52:16;14.20;;;8.50;;
21661;SDS011;10992;48.170;8.596;2022-10-26T06:54:50;10.70;;;7.90;;
21661;SDS011;10992;48.170;8.596;2022-10-26T06:57:19;9.85;;;7.00;;
21661;SDS011;10992;48.170;8.596;2022-10-26T06:59:56;10.05;;;7.28;;
21661;SDS011;10992;48.170;8.596;2022-10-26T07:02:26;8.40;;;6.60;;
21661;SDS011;10992;48.170;8.596;2022-10-26T07:04:53;11.02;;;7.28;;
21661;SDS011;10992;48.170;8.596;2022-10-26T07:07:21;10.00;;;6.85;;
21661;SDS011;10992;48.170;8.596;2022-10-26T07:09:50;6.65;;;5.78;;
21661;SDS011;10992;48.170;8.596;2022-10-26T07:12:17;7.35;;;5.93;;
21661;SDS011;10992;48.170;8.596;2022-10-26T07:14:44;6.50;;;5.25;;
21661;SDS011;10992;48.170;8.596;2022-10-26T07:17:11;6.55;;;5.53;;
21661;SDS011;10992;48.170;8.596;2022-10-26T07:19:38;6.40;;;4.55;;
21661;SDS011;10992;48.170;8.596;2022-10-26T07:22:05;7.93;;;5.35;;
21661;SDS011;10992;48.170;8.596;2022-10-26T07:24:32;6.18;;;4.75;;
21661;SDS011;10992;48.170;8.596;2022-10-26T07:26:59;8.23;;;4.25;;
21661;SDS011;10992;48.170;8.596;2022-10-26T07:29:26;7.05;;;4.90;;
21661;SDS011;10992;48.170;8.596;2022-10-26T07:31:53;7.00;;;4.07;;
21661;SDS011;10992;48.170;8.596;2022-10-26T07:34:20;7.45;;;4.97;;
21661;SDS011;10992;48.170;8.596;2022-10-26T07:36:47;9.05;;;5.05;;
21661;SDS011;10992;48.170;8.596;2022-10-26T07:39:14;10.82;;;5.25;;
21661;SDS011;10992;48.170;8.596;2022-10-26T07:41:40;7.68;;;5.30;;
21661;SDS011;10992;48.170;8.596;2022-10-26T07:44:07;9.70;;;5.75;;
21661;SDS011;10992;48.170;8.596;2022-10-26T07:46:34;6.95;;;4.97;;
21661;SDS011;10992;48.170;8.596;2022-10-26T07:49:01;7.45;;;4.80;;
21661;SDS011;10992;48.170;8.596;2022-10-26T07:51:28;9.07;;;5.15;;
21661;SDS011;10992;48.170;8.596;2022-10-26T07:53:55;10.20;;;5.55;;
21661;SDS011;10992;48.170;8.596;2022-10-26T07:56:21;9.00;;;4.75;;
21661;SDS011;10992;48.170;8.596;2022-10-26T07:58:50;7.00;;;4.53;;
21661;SDS011;10992;48.170;8.596;2022-10-26T08:01:18;7.97;;;4.97;;
21661;SDS011;10992;48.170;8.596;2022-10-26T08:03:45;7.05;;;4.57;;
21661;SDS011;10992;48.170;8.596;2022-10-26T08:06:12;6.22;;;4.10;;
21661;SDS011;10992;48.170;8.596;2022-10-26T08:08:40;8.80;;;5.13;;
21661;SDS011;10992;48.170;8.596;2022-10-26T08:11:12;6.75;;;4.65;;
21661;SDS011;10992;48.170;8.596;2022-10-26T08:13:39;10.82;;;5.07;;
21661;SDS011;10992;48.170;8.596;2022-10-26T08:16:07;9.13;;;4.68;;
21661;SDS011;10992;48.170;8.596;2022-10-26T08:18:34;9.05;;;4.95;;
21661;SDS011;10992;48.170;8.596;2022-10-26T08:21:02;8.25;;;4.63;;
21661;SDS011;10992;48.170;8.596;2022-10-26T08:23:37;8.30;;;5.03;;
21661;SDS011;10992;48.170;8.596;2022-10-26T08:26:04;10.18;;;4.72;;
21661;SDS011;10992;48.170;8.596;2022-10-26T08:28:31;8.18;;;4.90;;
21661;SDS011;10992;48.170;8.596;2022-10-26T08:30:59;8.70;;;5.60;;
21661;SDS011;10992;48.170;8.596;2022-10-26T08:33:25;6.22;;;5.00;;
21661;SDS011;10992;48.170;8.596;2022-10-26T08:35:59;8.05;;;4.53;;
21661;SDS011;10992;48.170;8.596;2022-10-26T08:38:27;8.07;;;5.13;;
21661;SDS011;10992;48.170;8.596;2022-10-26T08:40:55;6.70;;;4.85;;
21661;SDS011;10992;48.170;8.596;2022-10-26T08:43:30;8.27;;;4.82;;
21661;SDS011;10992;48.170;8.596;2022-10-26T08:46:07;8.05;;;4.50;;
21661;SDS011;10992;48.170;8.596;2022-10-26T08:48:44;9.77;;;5.13;;
21661;SDS011;10992;48.170;8.596;2022-10-26T08:51:16;9.60;;;6.00;;
21661;SDS011;10992;48.170;8.596;2022-10-26T08:53:56;8.77;;;5.03;;
21661;SDS011;10992;48.170;8.596;2022-10-26T08:56:28;9.02;;;5.40;;
21661;SDS011;10992;48.170;8.596;2022-10-26T09:01:52;11.55;;;5.60;;
21661;SDS011;10992;48.170;8.596;2022-10-26T09:04:21;7.47;;;4.30;;
21661;SDS011;10992;48.170;8.596;2022-10-26T09:13:08;6.40;;;3.40;;
21661;SDS011;10992;48.170;8.596;2022-10-26T09:15:23;7.93;;;3.38;;
21661;SDS011;10992;48.170;8.596;2022-10-26T09:18:28;9.05;;;3.17;;
21661;SDS011;10992;48.170;8.596;2022-10-26T09:23:58;6.55;;;3.40;;
21661;SDS011;10992;48.170;8.596;2022-10-26T09:26:52;5.75;;;2.42;;
21661;SDS011;10992;48.170;8.596;2022-10-26T09:29:26;6.65;;;2.65;;
21661;SDS011;10992;48.170;8.596;2022-10-26T09:31:58;6.53;;;2.20;;
21661;SDS011;10992;48.170;8.596;2022-10-26T09:34:28;7.28;;;2.65;;
21661;SDS011;10992;48.170;8.596;2022-10-26T09:37:04;4.65;;;1.90;;
21661;SDS011;10992;48.170;8.596;2022-10-26T09:39:41;5.35;;;2.03;;
21661;SDS011;10992;48.170;8.596;2022-10-26T09:42:19;9.60;;;2.35;;
21661;SDS011;10992;48.170;8.596;2022-10-26T09:44:53;6.30;;;1.95;;
21661;SDS011;10992;48.170;8.596;2022-10-26T09:50:14;3.08;;;1.73;;
21661;SDS011;10992;48.170;8.596;2022-10-26T09:52:48;6.30;;;2.42;;
21661;SDS011;10992;48.170;8.596;2022-10-26T09:55:15;6.80;;;1.67;;
21661;SDS011;10992;48.170;8.596;2022-10-26T09:57:45;9.40;;;2.13;;
21661;SDS011;10992;48.170;8.596;2022-10-26T10:00:16;5.93;;;2.33;;
21661;SDS011;10992;48.170;8.596;2022-10-26T10:02:49;6.47;;;2.13;;
21661;SDS011;10992;48.170;8.596;2022-10-26T10:08:18;5.00;;;2.33;;
21661;SDS011;10992;48.170;8.596;2022-10-26T10:13:38;5.28;;;1.92;;
21661;SDS011;10992;48.170;8.596;2022-10-26T10:16:20;11.90;;;2.63;;
21661;SDS011;10992;48.170;8.596;2022-10-26T10:18:52;8.10;;;2.50;;
21661;SDS011;10992;48.170;8.596;2022-10-26T10:21:32;5.72;;;2.40;;
21661;SDS011;10992;48.170;8.596;2022-10-26T10:24:20;8.85;;;2.58;;
21661;SDS011;10992;48.170;8.596;2022-10-26T10:27:14;7.70;;;2.28;;
21661;SDS011;10992;48.170;8.596;2022-10-26T10:29:44;7.47;;;2.00;;
21661;SDS011;10992;48.170;8.596;2022-10-26T10:34:43;5.13;;;1.92;;
21661;SDS011;10992;48.170;8.596;2022-10-26T10:40:22;9.05;;;2.38;;
21661;SDS011;10992;48.170;8.596;2022-10-26T10:42:54;6.00;;;1.92;;
21661;SDS011;10992;48.170;8.596;2022-10-26T10:45:32;7.85;;;2.17;;
21661;SDS011;10992;48.170;8.596;2022-10-26T10:48:04;9.57;;;2.13;;
21661;SDS011;10992;48.170;8.596;2022-10-26T10:50:51;7.72;;;1.90;;
21661;SDS011;10992;48.170;8.596;2022-10-26T10:59:03;7.70;;;1.90;;
21661;SDS011;10992;48.170;8.596;2022-10-26T11:07:43;6.95;;;1.77;;
21661;SDS011;10992;48.170;8.596;2022-10-26T11:10:17;8.05;;;2.22;;
21661;SDS011;10992;48.170;8.596;2022-10-26T11:12:48;5.95;;;1.40;;
21661;SDS011;10992;48.170;8.596;2022-10-26T11:15:24;6.53;;;1.77;;
21661;SDS011;10992;48.170;8.596;2022-10-26T11:18:11;8.45;;;2.33;;
21661;SDS011;10992;48.170;8.596;2022-10-26T11:20:46;7.60;;;1.90;;
21661;SDS011;10992;48.170;8.596;2022-10-26T11:23:23;8.98;;;1.95;;
21661;SDS011;10992;48.170;8.596;2022-10-26T11:26:10;9.52;;;1.92;;
21661;SDS011;10992;48.170;8.596;2022-10-26T11:28:45;7.22;;;2.00;;
21661;SDS011;10992;48.170;8.596;2022-10-26T11:31:21;7.60;;;2.45;;
21661;SDS011;10992;48.170;8.596;2022-10-26T11:34:37;9.30;;;1.95;;
21661;SDS011;10992;48.170;8.596;2022-10-26T11:36:54;7.55;;;1.60;;
21661;SDS011;10992;48.170;8.596;2022-10-26T11:42:33;5.68;;;1.85;;
21661;SDS011;10992;48.170;8.596;2022-10-26T11:45:29;14.27;;;2.22;;
21661;SDS011;10992;48.170;8.596;2022-10-26T11:48:13;5.55;;;1.73;;
21661;SDS011;10992;48.170;8.596;2022-10-26T11:50:56;5.93;;;1.80;;
21661;SDS011;10992;48.170;8.596;2022-10-26T11:53:27;6.18;;;1.95;;
21661;SDS011;10992;48.170;8.596;2022-10-26T11:56:01;10.52;;;2.08;;
21661;SDS011;10992;48.170;8.596;2022-10-26T11:58:30;5.22;;;2.05;;
21661;SDS011;10992;48.170;8.596;2022-10-26T12:01:07;6.65;;;2.13;;
21661;SDS011;10992;48.170;8.596;2022-10-26T12:03:36;7.72;;;2.30;;
21661;SDS011;10992;48.170;8.596;2022-10-26T12:06:11;9.50;;;2.15;;
21661;SDS011;10992;48.170;8.596;2022-10-26T12:08:41;8.85;;;2.10;;
21661;SDS011;10992;48.170;8.596;2022-10-26T12:11:13;6.15;;;2.25;;
21661;SDS011;10992;48.170;8.596;2022-10-26T12:14:46;7.57;;;1.98;;
21661;SDS011;10992;48.170;8.596;2022-10-26T12:19:45;7.72;;;1.95;;
21661;SDS011;10992;48.170;8.596;2022-10-26T12:22:21;8.43;;;2.28;;
21661;SDS011;10992;48.170;8.596;2022-10-26T12:37:56;6.88;;;2.28;;
21661;SDS011;10992;48.170;8.596;2022-10-26T12:45:42;5.50;;;1.98;;
21661;SDS011;10992;48.170;8.596;2022-10-26T12:56:25;7.90;;;2.40;;
21661;SDS011;10992;48.170;8.596;2022-10-26T13:05:02;7.97;;;2.35;;
21661;SDS011;10992;48.170;8.596;2022-10-26T13:07:52;10.57;;;2.78;;
21661;SDS011;10992;48.170;8.596;2022-10-26T13:10:28;4.30;;;1.90;;
21661;SDS011;10992;48.170;8.596;2022-10-26T13:12:55;8.80;;;2.00;;
21661;SDS011;10992;48.170;8.596;2022-10-26T13:18:11;10.35;;;2.17;;
21661;SDS011;10992;48.170;8.596;2022-10-26T13:20:57;5.03;;;1.75;;
21661;SDS011;10992;48.170;8.596;2022-10-26T13:23:42;5.75;;;1.50;;
21661;SDS011;10992;48.170;8.596;2022-10-26T13:26:11;8.18;;;2.10;;
21661;SDS011;10992;48.170;8.596;2022-10-26T13:33:55;12.07;;;2.13;;
21661;SDS011;10992;48.170;8.596;2022-10-26T13:39:36;6.82;;;2.10;;
21661;SDS011;10992;48.170;8.596;2022-10-26T13:42:06;9.65;;;2.55;;
21661;SDS011;10992;48.170;8.596;2022-10-26T13:44:43;20.40;;;2.58;;
21661;SDS011;10992;48.170;8.596;2022-10-26T13:48:09;13.20;;;2.78;;
21661;SDS011;10992;48.170;8.596;2022-10-26T13:50:36;6.55;;;2.08;;
21661;SDS011;10992;48.170;8.596;2022-10-26T13:56:11;9.95;;;2.20;;
21661;SDS011;10992;48.170;8.596;2022-10-26T13:58:44;9.85;;;2.20;;
21661;SDS011;10992;48.170;8.596;2022-10-26T14:01:32;8.25;;;2.13;;
21661;SDS011;10992;48.170;8.596;2022-10-26T14:04:12;10.18;;;2.15;;
21661;SDS011;10992;48.170;8.596;2022-10-26T14:06:52;6.50;;;1.65;;
21661;SDS011;10992;48.170;8.596;2022-10-26T14:09:20;7.38;;;2.05;;
21661;SDS011;10992;48.170;8.596;2022-10-26T14:11:48;7.72;;;1.80;;
21661;SDS011;10992;48.170;8.596;2022-10-26T14:14:39;11.95;;;1.70;;
21661;SDS011;10992;48.170;8.596;2022-10-26T14:17:05;9.30;;;2.10;;
21661;SDS011;10992;48.170;8.596;2022-10-26T14:19:33;7.28;;;1.83;;
21661;SDS011;10992;48.170;8.596;2022-10-26T14:22:02;6.65;;;2.05;;
21661;SDS011;10992;48.170;8.596;2022-10-26T14:24:31;8.63;;;2.50;;
21661;SDS011;10992;48.170;8.596;2022-10-26T14:27:16;9.73;;;2.10;;
21661;SDS011;10992;48.170;8.596;2022-10-26T14:29:45;7.22;;;2.10;;
21661;SDS011;10992;48.170;8.596;2022-10-26T14:32:32;10.20;;;2.03;;
21661;SDS011;10992;48.170;8.596;2022-10-26T14:35:02;10.52;;;2.22;;
21661;SDS011;10992;48.170;8.596;2022-10-26T14:37:40;7.00;;;2.10;;
21661;SDS011;10992;48.170;8.596;2022-10-26T14:40:16;7.70;;;2.10;;
21661;SDS011;10992;48.170;8.596;2022-10-26T14:42:49;7.72;;;2.33;;
21661;SDS011;10992;48.170;8.596;2022-10-26T14:48:20;8.38;;;2.50;;
21661;SDS011;10992;48.170;8.596;2022-10-26T14:53:49;7.97;;;1.90;;
21661;SDS011;10992;48.170;8.596;2022-10-26T14:56:21;9.52;;;2.20;;
21661;SDS011;10992;48.170;8.596;2022-10-26T14:58:50;9.60;;;1.90;;
21661;SDS011;10992;48.170;8.596;2022-10-26T15:03:57;13.43;;;2.30;;
21661;SDS011;10992;48.170;8.596;2022-10-26T15:06:44;7.43;;;2.78;;
21661;SDS011;10992;48.170;8.596;2022-10-26T15:09:31;9.15;;;2.33;;
21661;SDS011;10992;48.170;8.596;2022-10-26T15:12:03;11.63;;;2.83;;
21661;SDS011;10992;48.170;8.596;2022-10-26T15:14:31;7.65;;;2.28;;
21661;SDS011;10992;48.170;8.596;2022-10-26T15:16:59;11.07;;;2.47;;
21661;SDS011;10992;48.170;8.596;2022-10-26T15:19:26;8.77;;;2.22;;
21661;SDS011;10992;48.170;8.596;2022-10-26T15:21:53;7.95;;;2.47;;
21661;SDS011;10992;48.170;8.596;2022-10-26T15:24:25;9.25;;;2.30;;
21661;SDS011;10992;48.170;8.596;2022-10-26T15:27:10;6.72;;;2.45;;
21661;SDS011;10992;48.170;8.596;2022-10-26T15:29:46;6.28;;;2.05;;
21661;SDS011;10992;48.170;8.596;2022-10-26T15:32:28;10.38;;;2.47;;
21661;SDS011;10992;48.170;8.596;2022-10-26T15:37:37;13.20;;;2.80;;
21661;SDS011;10992;48.170;8.596;2022-10-26T15:40:07;7.57;;;2.47;;
21661;SDS011;10992;48.170;8.596;2022-10-26T15:42:34;8.25;;;2.60;;
21661;SDS011;10992;48.170;8.596;2022-10-26T15:45:04;8.90;;;2.55;;
21661;SDS011;10992;48.170;8.596;2022-10-26T15:47:46;7.30;;;2.30;;
21661;SDS011;10992;48.170;8.596;2022-10-26T15:50:18;5.70;;;2.47;;
21661;SDS011;10992;48.170;8.596;2022-10-26T15:52:47;6.88;;;2.40;;
21661;SDS011;10992;48.170;8.596;2022-10-26T15:55:15;9.93;;;2.70;;
21661;SDS011;10992;48.170;8.596;2022-10-26T15:57:42;10.32;;;3.25;;
21661;SDS011;10992;48.170;8.596;2022-10-26T16:00:14;17.85;;;3.60;;
21661;SDS011;10992;48.170;8.596;2022-10-26T16:02:42;10.13;;;2.97;;
21661;SDS011;10992;48.170;8.596;2022-10-26T16:05:11;11.35;;;3.25;;
21661;SDS011;10992;48.170;8.596;2022-10-26T16:07:42;5.88;;;2.30;;
21661;SDS011;10992;48.170;8.596;2022-10-26T16:10:44;7.07;;;2.30;;
21661;SDS011;10992;48.170;8.596;2022-10-26T16:13:03;5.68;;;2.95;;
21661;SDS011;10992;48.170;8.596;2022-10-26T16:15:31;9.00;;;3.25;;
21661;SDS011;10992;48.170;8.596;2022-10-26T16:17:58;14.13;;;4.20;;
21661;SDS011;10992;48.170;8.596;2022-10-26T16:20:24;10.65;;;3.97;;
21661;SDS011;10992;48.170;8.596;2022-10-26T16:22:56;13.07;;;4.15;;
21661;SDS011;10992;48.170;8.596;2022-10-26T16:25:26;10.63;;;4.55;;
21661;SDS011;10992;48.170;8.596;2022-10-26T16:27:53;10.70;;;5.13;;
21661;SDS011;10992;48.170;8.596;2022-10-26T16:30:20;12.00;;;6.10;;
21661;SDS011;10992;48.170;8.596;2022-10-26T16:32:53;25.38;;;13.77;;
21661;SDS011;10992;48.170;8.596;2022-10-26T16:35:20;34.90;;;19.58;;
21661;SDS011;10992;48.170;8.596;2022-10-26T16:37:46;32.03;;;17.75;;
21661;SDS011;10992;48.170;8.596;2022-10-26T16:40:13;28.48;;;14.18;;
21661;SDS011;10992;48.170;8.596;2022-10-26T16:42:40;19.65;;;10.95;;
21661;SDS011;10992;48.170;8.596;2022-10-26T16:45:10;17.05;;;8.45;;
21661;SDS011;10992;48.170;8.596;2022-10-26T16:47:37;14.77;;;8.20;;
21661;SDS011;10992;48.170;8.596;2022-10-26T16:50:06;15.93;;;7.65;;
21661;SDS011;10992;48.170;8.596;2022-10-26T16:52:34;12.35;;;6.88;;
21661;SDS011;10992;48.170;8.596;2022-10-26T16:55:03;14.30;;;7.45;;
21661;SDS011;10992;48.170;8.596;2022-10-26T16:57:31;16.75;;;8.18;;
21661;SDS011;10992;48.170;8.596;2022-10-26T16:59:58;14.35;;;5.70;;
21661;SDS011;10992;48.170;8.596;2022-10-26T17:02:25;10.10;;;4.18;;
21661;SDS011;10992;48.170;8.596;2022-10-26T17:04:52;14.55;;;5.32;;
21661;SDS011;10992;48.170;8.596;2022-10-26T17:07:19;12.23;;;4.97;;
21661;SDS011;10992;48.170;8.596;2022-10-26T17:09:46;12.88;;;5.28;;
21661;SDS011;10992;48.170;8.596;2022-10-26T17:12:12;12.98;;;6.55;;
21661;SDS011;10992;48.170;8.596;2022-10-26T17:14:39;12.82;;;5.75;;
21661;SDS011;10992;48.170;8.596;2022-10-26T17:17:06;14.88;;;6.45;;
21661;SDS011;10992;48.170;8.596;2022-10-26T17:19:33;13.90;;;6.53;;
21661;SDS011;10992;48.170;8.596;2022-10-26T17:22:01;13.45;;;7.28;;